sensor_id;sensor_type;location;lat;lon;timestamp;pressure;altitude;pressure_sealevel;temperature;humidity
47054;BME280;32811;52.382;5.270;2023-08-08T00:00:52;101484.34;;;13.46;100.00
47054;BME280;32811;52.382;5.270;2023-08-08T00:03:18;101480.03;;;13.48;100.00
47054;BME280;32811;52.382;5.270;2023-08-08T00:05:45;101471.38;;;13.44;100.00
47054;BME280;32811;52.382;5.270;2023-08-08T00:08:12;101461.84;;;13.43;100.00
47054;BME280;32811;52.382;5.270;2023-08-08T00:10:38;101457.56;;;13.55;100.00
47054;BME280;32811;52.382;5.270;2023-08-08T00:13:05;101474.00;;;13.66;100.00
47054;BME280;32811;52.382;5.270;2023-08-08T00:15:31;101480.91;;;13.64;100.00
47054;BME280;32811;52.382;5.270;2023-08-08T00:17:59;101457.56;;;13.47;100.00
47054;BME280;32811;52.382;5.270;2023-08-08T00:20:26;101459.28;;;13.54;100.00
47054;BME280;32811;52.382;5.270;2023-08-08T00:22:52;101462.78;;;13.67;100.00
47054;BME280;32811;52.382;5.270;2023-08-08T00:25:19;101466.22;;;13.75;100.00
47054;BME280;32811;52.382;5.270;2023-08-08T00:27:45;101467.97;;;13.76;100.00
47054;BME280;32811;52.382;5.270;2023-08-08T00:30:12;101460.19;;;13.79;100.00
47054;BME280;32811;52.382;5.270;2023-08-08T00:32:39;101454.13;;;13.77;100.00
47054;BME280;32811;52.382;5.270;2023-08-08T00:35:06;101448.09;;;13.80;100.00
47054;BME280;32811;52.382;5.270;2023-08-08T00:37:33;101451.53;;;13.82;100.00
47054;BME280;32811;52.382;5.270;2023-08-08T00:40:00;101442.88;;;13.77;100.00
47054;BME280;32811;52.382;5.270;2023-08-08T00:42:27;101445.50;;;13.78;100.00
47054;BME280;32811;52.382;5.270;2023-08-08T00:44:53;101452.41;;;13.75;100.00
47054;BME280;32811;52.382;5.270;2023-08-08T00:47:20;101461.06;;;13.80;100.00
47054;BME280;32811;52.382;5.270;2023-08-08T00:49:47;101440.28;;;13.75;100.00
47054;BME280;32811;52.382;5.270;2023-08-08T00:52:15;101446.34;;;13.83;100.00
47054;BME280;32811;52.382;5.270;2023-08-08T00:54:42;101426.47;;;13.73;100.00
47054;BME280;32811;52.382;5.270;2023-08-08T00:57:08;101444.63;;;13.84;100.00
47054;BME280;32811;52.382;5.270;2023-08-08T00:59:35;101442.91;;;13.83;100.00
47054;BME280;32811;52.382;5.270;2023-08-08T01:02:01;101451.56;;;13.85;100.00
47054;BME280;32811;52.382;5.270;2023-08-08T01:04:28;101446.34;;;13.83;100.00
47054;BME280;32811;52.382;5.270;2023-08-08T01:09:39;101436.84;;;13.81;100.00
47054;BME280;32811;52.382;5.270;2023-08-08T01:12:11;101439.44;;;13.84;100.00
47054;BME280;32811;52.382;5.270;2023-08-08T01:14:40;101436.00;;;13.85;100.00
47054;BME280;32811;52.382;5.270;2023-08-08T01:17:10;101441.19;;;13.86;100.00
47054;BME280;32811;52.382;5.270;2023-08-08T01:19:38;101438.56;;;13.79;100.00
47054;BME280;32811;52.382;5.270;2023-08-08T01:22:06;101446.34;;;13.82;100.00
47054;BME280;32811;52.382;5.270;2023-08-08T01:24:35;101429.06;;;13.81;100.00
47054;BME280;32811;52.382;5.270;2023-08-08T01:27:05;101423.00;;;13.79;100.00
47054;BME280;32811;52.382;5.270;2023-08-08T01:29:32;101436.84;;;13.87;100.00
47054;BME280;32811;52.382;5.270;2023-08-08T01:31:59;101431.66;;;13.85;100.00
47054;BME280;32811;52.382;5.270;2023-08-08T01:34:38;101370.25;;;13.52;100.00
47054;BME280;32811;52.382;5.270;2023-08-08T01:37:29;101434.25;;;13.90;100.00
47054;BME280;32811;52.382;5.270;2023-08-08T01:40:26;101352.06;;;13.31;100.00
47054;BME280;32811;52.382;5.270;2023-08-08T01:43:18;101308.78;;;13.08;100.00
47054;BME280;32811;52.382;5.270;2023-08-08T01:46:04;101359.00;;;13.36;100.00
47054;BME280;32811;52.382;5.270;2023-08-08T01:48:50;101348.59;;;13.30;100.00
47054;BME280;32811;52.382;5.270;2023-08-08T01:52:07;101355.50;;;13.28;100.00
47054;BME280;32811;52.382;5.270;2023-08-08T01:54:40;101398.78;;;13.54;100.00
47054;BME280;32811;52.382;5.270;2023-08-08T01:57:18;101300.16;;;12.91;100.00
47054;BME280;32811;52.382;5.270;2023-08-08T01:59:49;101340.75;;;13.10;100.00
47054;BME280;32811;52.382;5.270;2023-08-08T02:02:29;101310.50;;;12.98;100.00
47054;BME280;32811;52.382;5.270;2023-08-08T02:05:00;101362.41;;;13.23;100.00
47054;BME280;32811;52.382;5.270;2023-08-08T02:07:29;101377.13;;;13.30;100.00
47054;BME280;32811;52.382;5.270;2023-08-08T02:09:59;101293.19;;;12.83;100.00
47054;BME280;32811;52.382;5.270;2023-08-08T02:12:30;101349.44;;;13.23;100.00
47054;BME280;32811;52.382;5.270;2023-08-08T02:14:59;101415.19;;;13.49;100.00
47054;BME280;32811;52.382;5.270;2023-08-08T02:17:30;101377.94;;;13.21;100.00
47054;BME280;32811;52.382;5.270;2023-08-08T02:20:13;101339.88;;;12.91;100.00
47054;BME280;32811;52.382;5.270;2023-08-08T02:22:49;101292.31;;;12.69;100.00
47054;BME280;32811;52.382;5.270;2023-08-08T02:25:30;101308.72;;;12.74;100.00
47054;BME280;32811;52.382;5.270;2023-08-08T02:28:10;101395.28;;;13.30;100.00
47054;BME280;32811;52.382;5.270;2023-08-08T02:30:40;101308.72;;;12.73;100.00
47054;BME280;32811;52.382;5.270;2023-08-08T02:33:20;101296.59;;;12.65;100.00
47054;BME280;32811;52.382;5.270;2023-08-08T02:36:00;101251.63;;;12.39;100.00
47054;BME280;32811;52.382;5.270;2023-08-08T02:38:47;101289.69;;;12.55;100.00
47054;BME280;32811;52.382;5.270;2023-08-08T02:41:43;101297.47;;;12.60;100.00
47054;BME280;32811;52.382;5.270;2023-08-08T02:44:16;101319.97;;;12.73;100.00
47054;BME280;32811;52.382;5.270;2023-08-08T02:46:53;101334.69;;;12.91;100.00
47054;BME280;32811;52.382;5.270;2023-08-08T02:49:24;101276.72;;;12.57;100.00
47054;BME280;32811;52.382;5.270;2023-08-08T02:51:54;101326.06;;;12.95;100.00
47054;BME280;32811;52.382;5.270;2023-08-08T02:54:21;101369.38;;;13.41;100.00
47054;BME280;32811;52.382;5.270;2023-08-08T02:56:55;101262.97;;;12.76;100.00
47054;BME280;32811;52.382;5.270;2023-08-08T02:59:30;101294.97;;;12.94;100.00
47054;BME280;32811;52.382;5.270;2023-08-08T03:01:57;101363.31;;;13.34;100.00
47054;BME280;32811;52.382;5.270;2023-08-08T03:04:24;101279.38;;;12.83;100.00
47054;BME280;32811;52.382;5.270;2023-08-08T03:06:54;101311.38;;;12.99;100.00
47054;BME280;32811;52.382;5.270;2023-08-08T03:09:22;101351.19;;;13.24;100.00
47054;BME280;32811;52.382;5.270;2023-08-08T03:11:49;101262.06;;;12.63;100.00
47054;BME280;32811;52.382;5.270;2023-08-08T03:14:15;101273.31;;;12.64;100.00
47054;BME280;32811;52.382;5.270;2023-08-08T03:16:48;101348.53;;;13.02;100.00
47054;BME280;32811;52.382;5.270;2023-08-08T03:19:14;101351.13;;;13.07;100.00
47054;BME280;32811;52.382;5.270;2023-08-08T03:21:41;101358.03;;;13.02;100.00
47054;BME280;32811;52.382;5.270;2023-08-08T03:24:08;101340.69;;;12.82;100.00
47054;BME280;32811;52.382;5.270;2023-08-08T03:26:34;101353.69;;;12.92;100.00
47054;BME280;32811;52.382;5.270;2023-08-08T03:29:01;101364.06;;;12.96;100.00
47054;BME280;32811;52.382;5.270;2023-08-08T03:31:28;101349.38;;;13.03;100.00
47054;BME280;32811;52.382;5.270;2023-08-08T03:33:54;101349.38;;;13.06;100.00
47054;BME280;32811;52.382;5.270;2023-08-08T03:36:21;101323.44;;;12.92;100.00
47054;BME280;32811;52.382;5.270;2023-08-08T03:38:48;101339.00;;;12.98;100.00
47054;BME280;32811;52.382;5.270;2023-08-08T03:41:17;101295.78;;;12.80;100.00
47054;BME280;32811;52.382;5.270;2023-08-08T03:43:51;101333.84;;;12.98;100.00
47054;BME280;32811;52.382;5.270;2023-08-08T03:46:17;101328.63;;;12.89;100.00
47054;BME280;32811;52.382;5.270;2023-08-08T03:48:44;101324.31;;;12.82;100.00
47054;BME280;32811;52.382;5.270;2023-08-08T03:51:11;101326.03;;;12.80;100.00
47054;BME280;32811;52.382;5.270;2023-08-08T03:53:37;101324.31;;;12.82;100.00
47054;BME280;32811;52.382;5.270;2023-08-08T03:56:04;101319.94;;;12.76;100.00
47054;BME280;32811;52.382;5.270;2023-08-08T03:58:31;101320.84;;;12.83;100.00
47054;BME280;32811;52.382;5.270;2023-08-08T04:00:57;101295.75;;;12.65;100.00
47054;BME280;32811;52.382;5.270;2023-08-08T04:03:24;101315.66;;;12.75;100.00
47054;BME280;32811;52.382;5.270;2023-08-08T04:05:51;101316.50;;;12.71;100.00
47054;BME280;32811;52.382;5.270;2023-08-08T04:08:20;101309.63;;;12.84;100.00
47054;BME280;32811;52.382;5.270;2023-08-08T04:10:48;101313.06;;;12.83;100.00
47054;BME280;32811;52.382;5.270;2023-08-08T04:13:15;101307.03;;;12.87;100.00
47054;BME280;32811;52.382;5.270;2023-08-08T04:15:44;101288.84;;;12.72;100.00
47054;BME280;32811;52.382;5.270;2023-08-08T04:18:11;101325.16;;;12.85;100.00
47054;BME280;32811;52.382;5.270;2023-08-08T04:20:39;101300.94;;;12.74;100.00
47054;BME280;32811;52.382;5.270;2023-08-08T04:23:06;101318.22;;;12.81;100.00
47054;BME280;32811;52.382;5.270;2023-08-08T04:25:34;101316.50;;;12.80;100.00
47054;BME280;32811;52.382;5.270;2023-08-08T04:28:01;101327.78;;;12.96;100.00
47054;BME280;32811;52.382;5.270;2023-08-08T04:30:27;101321.75;;;12.97;100.00
47054;BME280;32811;52.382;5.270;2023-08-08T04:32:54;101324.38;;;13.11;100.00
47054;BME280;32811;52.382;5.270;2023-08-08T04:35:21;101298.44;;;13.00;100.00
47054;BME280;32811;52.382;5.270;2023-08-08T04:37:48;101309.69;;;13.04;100.00
47054;BME280;32811;52.382;5.270;2023-08-08T04:40:14;101319.16;;;13.00;100.00
47054;BME280;32811;52.382;5.270;2023-08-08T04:42:41;101326.06;;;12.98;100.00
47054;BME280;32811;52.382;5.270;2023-08-08T04:45:08;101321.75;;;12.96;100.00
47054;BME280;32811;52.382;5.270;2023-08-08T04:47:35;101295.78;;;12.76;100.00
47054;BME280;32811;52.382;5.270;2023-08-08T04:50:02;101322.56;;;12.90;100.00
47054;BME280;32811;52.382;5.270;2023-08-08T04:52:28;101324.31;;;12.94;100.00
47054;BME280;32811;52.382;5.270;2023-08-08T04:54:56;101297.53;;;12.84;100.00
47054;BME280;32811;52.382;5.270;2023-08-08T04:57:22;101314.00;;;13.02;100.00
47054;BME280;32811;52.382;5.270;2023-08-08T04:59:53;101226.69;;;12.59;100.00
47054;BME280;32811;52.382;5.270;2023-08-08T05:02:52;101170.50;;;12.24;100.00
47054;BME280;32811;52.382;5.270;2023-08-08T05:05:56;101261.25;;;12.83;100.00
47054;BME280;32811;52.382;5.270;2023-08-08T05:08:41;101246.56;;;12.74;100.00
47054;BME280;32811;52.382;5.270;2023-08-08T05:11:32;101209.44;;;12.61;100.00
47054;BME280;32811;52.382;5.270;2023-08-08T05:14:17;101320.97;;;13.47;100.00
47054;BME280;32811;52.382;5.270;2023-08-08T05:17:03;101219.81;;;12.98;100.00
47054;BME280;32811;52.382;5.270;2023-08-08T05:19:30;101206.00;;;13.08;100.00
47054;BME280;32811;52.382;5.270;2023-08-08T05:21:59;101280.31;;;13.76;100.00
47054;BME280;32811;52.382;5.270;2023-08-08T05:24:36;101224.94;;;13.87;100.00
47054;BME280;32811;52.382;5.270;2023-08-08T05:27:10;101246.28;;;14.57;100.00
47054;BME280;32811;52.382;5.270;2023-08-08T05:29:48;101253.88;;;14.94;100.00
47054;BME280;32811;52.382;5.270;2023-08-08T05:32:17;101243.25;;;15.22;100.00
47054;BME280;32811;52.382;5.270;2023-08-08T05:34:53;101233.56;;;15.39;100.00
47054;BME280;32811;52.382;5.270;2023-08-08T05:37:29;101194.41;;;15.53;100.00
47054;BME280;32811;52.382;5.270;2023-08-08T05:39:58;101202.03;;;15.71;100.00
47054;BME280;32811;52.382;5.270;2023-08-08T05:42:29;101216.50;;;15.98;100.00
47054;BME280;32811;52.382;5.270;2023-08-08T05:45:00;101257.63;;;16.40;100.00
47054;BME280;32811;52.382;5.270;2023-08-08T05:47:29;101283.22;;;16.75;100.00
47054;BME280;32811;52.382;5.270;2023-08-08T05:49:56;101206.31;;;16.47;100.00
47054;BME280;32811;52.382;5.270;2023-08-08T05:52:25;101194.19;;;16.43;100.00
47054;BME280;32811;52.382;5.270;2023-08-08T05:54:55;101218.19;;;16.66;100.00
47054;BME280;32811;52.382;5.270;2023-08-08T05:57:24;101257.91;;;16.87;100.00
47054;BME280;32811;52.382;5.270;2023-08-08T05:59:51;101307.69;;;17.27;100.00
47054;BME280;32811;52.382;5.270;2023-08-08T06:02:18;101198.91;;;16.79;100.00
47054;BME280;32811;52.382;5.270;2023-08-08T06:04:45;101199.47;;;16.98;100.00
47054;BME280;32811;52.382;5.270;2023-08-08T06:07:12;101309.38;;;17.81;100.00
47054;BME280;32811;52.382;5.270;2023-08-08T06:09:38;101238.69;;;17.43;100.00
47054;BME280;32811;52.382;5.270;2023-08-08T06:12:05;101243.84;;;17.48;100.00
47054;BME280;32811;52.382;5.270;2023-08-08T06:14:32;101273.66;;;17.86;100.00
47054;BME280;32811;52.382;5.270;2023-08-08T06:17:02;101263.41;;;17.74;100.00
47054;BME280;32811;52.382;5.270;2023-08-08T06:19:32;101258.44;;;17.58;100.00
47054;BME280;32811;52.382;5.270;2023-08-08T06:22:03;101285.47;;;17.56;100.00
47054;BME280;32811;52.382;5.270;2023-08-08T06:24:30;101268.13;;;17.52;100.00
47054;BME280;32811;52.382;5.270;2023-08-08T06:27:00;101263.56;;;17.66;100.00
47054;BME280;32811;52.382;5.270;2023-08-08T06:29:27;101241.59;;;17.75;100.00
47054;BME280;32811;52.382;5.270;2023-08-08T06:31:54;101317.16;;;18.31;100.00
47054;BME280;32811;52.382;5.270;2023-08-08T06:34:20;101260.81;;;18.19;100.00
47054;BME280;32811;52.382;5.270;2023-08-08T06:36:48;101267.88;;;18.15;100.00
47054;BME280;32811;52.382;5.270;2023-08-08T06:39:14;101277.03;;;18.35;100.00
47054;BME280;32811;52.382;5.270;2023-08-08T06:41:41;101313.69;;;18.72;100.00
47054;BME280;32811;52.382;5.270;2023-08-08T06:44:08;101300.91;;;18.60;100.00
47054;BME280;32811;52.382;5.270;2023-08-08T06:46:35;101278.28;;;18.57;100.00
47054;BME280;32811;52.382;5.270;2023-08-08T06:49:01;101287.56;;;18.72;100.00
47054;BME280;32811;52.382;5.270;2023-08-08T06:51:28;101284.41;;;18.56;100.00
47054;BME280;32811;52.382;5.270;2023-08-08T06:53:55;101304.09;;;18.73;100.00
47054;BME280;32811;52.382;5.270;2023-08-08T06:56:21;101299.41;;;18.88;100.00
47054;BME280;32811;52.382;5.270;2023-08-08T06:58:48;101297.13;;;18.73;100.00
47054;BME280;32811;52.382;5.270;2023-08-08T07:01:15;101304.84;;;18.79;100.00
47054;BME280;32811;52.382;5.270;2023-08-08T07:03:42;101302.91;;;18.89;100.00
47054;BME280;32811;52.382;5.270;2023-08-08T07:06:10;101310.09;;;18.79;100.00
47054;BME280;32811;52.382;5.270;2023-08-08T07:08:37;101304.47;;;18.96;100.00
47054;BME280;32811;52.382;5.270;2023-08-08T07:11:05;101307.22;;;19.27;100.00
47054;BME280;32811;52.382;5.270;2023-08-08T07:13:32;101304.16;;;19.10;100.00
47054;BME280;32811;52.382;5.270;2023-08-08T07:16:00;101295.69;;;19.36;100.00
47054;BME280;32811;52.382;5.270;2023-08-08T07:18:27;101283.44;;;19.37;100.00
47054;BME280;32811;52.382;5.270;2023-08-08T07:20:54;101293.69;;;19.46;100.00
47054;BME280;32811;52.382;5.270;2023-08-08T07:23:23;101296.88;;;19.57;100.00
47054;BME280;32811;52.382;5.270;2023-08-08T07:25:49;101295.03;;;19.26;100.00
47054;BME280;32811;52.382;5.270;2023-08-08T07:28:17;101285.13;;;19.39;100.00
47054;BME280;32811;52.382;5.270;2023-08-08T07:30:44;101294.00;;;18.98;100.00
47054;BME280;32811;52.382;5.270;2023-08-08T07:33:11;101300.28;;;18.89;100.00
47054;BME280;32811;52.382;5.270;2023-08-08T07:35:37;101277.44;;;18.57;100.00
47054;BME280;32811;52.382;5.270;2023-08-08T07:38:04;101300.97;;;18.97;100.00
47054;BME280;32811;52.382;5.270;2023-08-08T07:40:31;101250.94;;;18.72;100.00
47054;BME280;32811;52.382;5.270;2023-08-08T07:42:57;101300.13;;;19.33;100.00
47054;BME280;32811;52.382;5.270;2023-08-08T07:45:24;101282.22;;;18.77;100.00
47054;BME280;32811;52.382;5.270;2023-08-08T07:47:50;101287.72;;;19.05;100.00
47054;BME280;32811;52.382;5.270;2023-08-08T07:50:17;101282.94;;;19.22;100.00
47054;BME280;32811;52.382;5.270;2023-08-08T07:52:44;101264.53;;;18.49;100.00
47054;BME280;32811;52.382;5.270;2023-08-08T07:55:11;101266.63;;;18.72;100.00
47054;BME280;32811;52.382;5.270;2023-08-08T07:57:38;101286.81;;;18.65;100.00
47054;BME280;32811;52.382;5.270;2023-08-08T08:00:05;101276.22;;;18.73;100.00
47054;BME280;32811;52.382;5.270;2023-08-08T08:02:42;101281.69;;;18.61;100.00
47054;BME280;32811;52.382;5.270;2023-08-08T08:05:10;101281.59;;;18.25;100.00
47054;BME280;32811;52.382;5.270;2023-08-08T08:07:38;101298.47;;;18.09;100.00
47054;BME280;32811;52.382;5.270;2023-08-08T08:10:07;101293.00;;;17.73;100.00
47054;BME280;32811;52.382;5.270;2023-08-08T08:12:36;101266.69;;;17.35;100.00
47054;BME280;32811;52.382;5.270;2023-08-08T08:15:03;101274.81;;;17.17;100.00
47054;BME280;32811;52.382;5.270;2023-08-08T08:17:30;101290.41;;;17.21;100.00
47054;BME280;32811;52.382;5.270;2023-08-08T08:19:57;101288.34;;;17.40;100.00
47054;BME280;32811;52.382;5.270;2023-08-08T08:22:25;101292.63;;;17.45;100.00
47054;BME280;32811;52.382;5.270;2023-08-08T08:24:51;101288.34;;;17.39;100.00
47054;BME280;32811;52.382;5.270;2023-08-08T08:27:18;101277.44;;;17.15;100.00
47054;BME280;32811;52.382;5.270;2023-08-08T08:29:45;101281.91;;;17.07;100.00
47054;BME280;32811;52.382;5.270;2023-08-08T08:32:11;101272.63;;;16.89;100.00
47054;BME280;32811;52.382;5.270;2023-08-08T08:34:38;101285.41;;;17.06;100.00
47054;BME280;32811;52.382;5.270;2023-08-08T08:37:05;101287.34;;;17.48;100.00
47054;BME280;32811;52.382;5.270;2023-08-08T08:39:31;101271.25;;;18.19;100.00
47054;BME280;32811;52.382;5.270;2023-08-08T08:41:59;101285.63;;;19.18;100.00
47054;BME280;32811;52.382;5.270;2023-08-08T08:44:31;101280.81;;;19.37;100.00
47054;BME280;32811;52.382;5.270;2023-08-08T08:47:02;101261.13;;;19.56;100.00
47054;BME280;32811;52.382;5.270;2023-08-08T08:49:30;101255.81;;;19.59;100.00
47054;BME280;32811;52.382;5.270;2023-08-08T08:51:59;101231.31;;;19.29;100.00
47054;BME280;32811;52.382;5.270;2023-08-08T08:54:28;101291.84;;;19.49;100.00
47054;BME280;32811;52.382;5.270;2023-08-08T08:56:56;101285.72;;;19.85;100.00
47054;BME280;32811;52.382;5.270;2023-08-08T08:59:24;101277.88;;;19.85;100.00
47054;BME280;32811;52.382;5.270;2023-08-08T09:01:51;101279.16;;;20.32;100.00
47054;BME280;32811;52.382;5.270;2023-08-08T09:04:20;101291.94;;;19.81;100.00
47054;BME280;32811;52.382;5.270;2023-08-08T09:06:48;101289.25;;;19.49;100.00
47054;BME280;32811;52.382;5.270;2023-08-08T09:09:16;101295.66;;;20.05;100.00
47054;BME280;32811;52.382;5.270;2023-08-08T09:11:48;101283.28;;;19.79;100.00
47054;BME280;32811;52.382;5.270;2023-08-08T09:14:19;101284.03;;;19.14;100.00
47054;BME280;32811;52.382;5.270;2023-08-08T09:16:47;101294.16;;;18.90;100.00
47054;BME280;32811;52.382;5.270;2023-08-08T09:19:15;101282.72;;;18.54;100.00
47054;BME280;32811;52.382;5.270;2023-08-08T09:21:44;101300.00;;;18.19;100.00
47054;BME280;32811;52.382;5.270;2023-08-08T09:24:11;101291.69;;;17.98;100.00
47054;BME280;32811;52.382;5.270;2023-08-08T09:26:39;101288.22;;;17.98;100.00
47054;BME280;32811;52.382;5.270;2023-08-08T09:29:10;101298.09;;;17.82;100.00
47054;BME280;32811;52.382;5.270;2023-08-08T09:31:37;101284.13;;;17.83;100.00
47054;BME280;32811;52.382;5.270;2023-08-08T09:34:05;101293.88;;;17.73;100.00
47054;BME280;32811;52.382;5.270;2023-08-08T09:36:33;101297.53;;;17.61;100.00
47054;BME280;32811;52.382;5.270;2023-08-08T09:39:01;101297.19;;;17.83;100.00
47054;BME280;32811;52.382;5.270;2023-08-08T09:41:28;101276.81;;;18.44;100.00
47054;BME280;32811;52.382;5.270;2023-08-08T09:43:55;101281.06;;;18.50;100.00
47054;BME280;32811;52.382;5.270;2023-08-08T09:46:22;101286.53;;;18.81;100.00
47054;BME280;32811;52.382;5.270;2023-08-08T09:48:50;101294.91;;;18.95;100.00
47054;BME280;32811;52.382;5.270;2023-08-08T09:51:16;101289.03;;;18.85;100.00
47054;BME280;32811;52.382;5.270;2023-08-08T09:53:43;101291.69;;;19.20;100.00
47054;BME280;32811;52.382;5.270;2023-08-08T09:56:12;101300.53;;;19.52;100.00
47054;BME280;32811;52.382;5.270;2023-08-08T09:58:41;101302.47;;;19.79;100.00
47054;BME280;32811;52.382;5.270;2023-08-08T10:01:08;101295.13;;;19.92;100.00
47054;BME280;32811;52.382;5.270;2023-08-08T10:03:35;101316.53;;;20.08;100.00
47054;BME280;32811;52.382;5.270;2023-08-08T10:06:04;101281.03;;;19.29;100.00
47054;BME280;32811;52.382;5.270;2023-08-08T10:08:31;101302.25;;;19.17;100.00
47054;BME280;32811;52.382;5.270;2023-08-08T10:10:58;101302.50;;;19.06;100.00
47054;BME280;32811;52.382;5.270;2023-08-08T10:13:26;101316.28;;;19.14;100.00
47054;BME280;32811;52.382;5.270;2023-08-08T10:15:54;101319.63;;;19.55;100.00
47054;BME280;32811;52.382;5.270;2023-08-08T10:18:22;101286.06;;;19.37;100.00
47054;BME280;32811;52.382;5.270;2023-08-08T10:20:50;101318.53;;;19.29;100.00
47054;BME280;32811;52.382;5.270;2023-08-08T10:23:18;101301.84;;;18.98;100.00
47054;BME280;32811;52.382;5.270;2023-08-08T10:25:46;101309.88;;;18.88;100.00
47054;BME280;32811;52.382;5.270;2023-08-08T10:28:17;101312.13;;;19.05;100.00
47054;BME280;32811;52.382;5.270;2023-08-08T10:30:58;101301.44;;;19.13;100.00
47054;BME280;32811;52.382;5.270;2023-08-08T10:33:39;101282.69;;;18.96;100.00
47054;BME280;32811;52.382;5.270;2023-08-08T10:36:07;101314.47;;;19.16;100.00
47054;BME280;32811;52.382;5.270;2023-08-08T10:38:45;101265.59;;;18.81;100.00
47054;BME280;32811;52.382;5.270;2023-08-08T10:41:14;101302.38;;;19.12;100.00
47054;BME280;32811;52.382;5.270;2023-08-08T10:43:50;101288.47;;;19.10;100.00
47054;BME280;32811;52.382;5.270;2023-08-08T10:46:31;101315.00;;;19.31;100.00
47054;BME280;32811;52.382;5.270;2023-08-08T10:49:00;101318.16;;;19.45;100.00
47054;BME280;32811;52.382;5.270;2023-08-08T10:51:39;101325.63;;;19.60;100.00
47054;BME280;32811;52.382;5.270;2023-08-08T10:54:08;101315.53;;;19.45;100.00
47054;BME280;32811;52.382;5.270;2023-08-08T10:56:38;101281.22;;;19.20;100.00
47054;BME280;32811;52.382;5.270;2023-08-08T10:59:17;101286.44;;;18.84;100.00
47054;BME280;32811;52.382;5.270;2023-08-08T11:01:51;101324.25;;;19.10;100.00
47054;BME280;32811;52.382;5.270;2023-08-08T11:04:20;101319.94;;;19.07;100.00
47054;BME280;32811;52.382;5.270;2023-08-08T11:06:48;101319.72;;;19.86;100.00
47054;BME280;32811;52.382;5.270;2023-08-08T11:09:17;101325.03;;;19.85;100.00
47054;BME280;32811;52.382;5.270;2023-08-08T11:11:44;101335.41;;;19.54;100.00
47054;BME280;32811;52.382;5.270;2023-08-08T11:14:17;101335.47;;;19.50;100.00
47054;BME280;32811;52.382;5.270;2023-08-08T11:16:45;101336.25;;;19.18;100.00
47054;BME280;32811;52.382;5.270;2023-08-08T11:19:12;101330.91;;;19.23;100.00
47054;BME280;32811;52.382;5.270;2023-08-08T11:21:42;101333.75;;;19.14;100.00
47054;BME280;32811;52.382;5.270;2023-08-08T11:24:10;101335.31;;;18.82;100.00
47054;BME280;32811;52.382;5.270;2023-08-08T11:26:37;101326.69;;;18.75;100.00
47054;BME280;32811;52.382;5.270;2023-08-08T11:29:06;101323.28;;;18.73;100.00
47054;BME280;32811;52.382;5.270;2023-08-08T11:31:36;101322.28;;;18.80;100.00
47054;BME280;32811;52.382;5.270;2023-08-08T11:34:04;101319.88;;;19.08;100.00
47054;BME280;32811;52.382;5.270;2023-08-08T11:36:35;101321.00;;;18.98;100.00
47054;BME280;32811;52.382;5.270;2023-08-08T11:39:03;101316.84;;;18.90;100.00
47054;BME280;32811;52.382;5.270;2023-08-08T11:41:37;101317.25;;;18.70;100.00
47054;BME280;32811;52.382;5.270;2023-08-08T11:44:05;101311.16;;;19.45;100.00
47054;BME280;32811;52.382;5.270;2023-08-08T11:46:34;101308.91;;;19.30;100.00
47054;BME280;32811;52.382;5.270;2023-08-08T11:49:04;101309.75;;;19.31;100.00
47054;BME280;32811;52.382;5.270;2023-08-08T11:51:34;101306.03;;;19.05;100.00
47054;BME280;32811;52.382;5.270;2023-08-08T11:54:02;101320.72;;;19.11;100.00
47054;BME280;32811;52.382;5.270;2023-08-08T11:56:33;101310.81;;;19.23;100.00
47054;BME280;32811;52.382;5.270;2023-08-08T11:59:00;101321.78;;;19.38;100.00
47054;BME280;32811;52.382;5.270;2023-08-08T12:01:30;101318.69;;;19.22;100.00
47054;BME280;32811;52.382;5.270;2023-08-08T12:03:57;101300.31;;;19.25;100.00
47054;BME280;32811;52.382;5.270;2023-08-08T12:06:28;101305.50;;;19.26;100.00
47054;BME280;32811;52.382;5.270;2023-08-08T12:08:56;101310.25;;;19.11;100.00
47054;BME280;32811;52.382;5.270;2023-08-08T12:11:22;101317.97;;;19.15;100.00
47054;BME280;32811;52.382;5.270;2023-08-08T12:13:58;101322.97;;;19.26;100.00
47054;BME280;32811;52.382;5.270;2023-08-08T12:16:28;101320.88;;;19.04;100.00
47054;BME280;32811;52.382;5.270;2023-08-08T12:19:04;101319.44;;;18.91;100.00
47054;BME280;32811;52.382;5.270;2023-08-08T12:21:33;101315.25;;;19.20;100.00
47054;BME280;32811;52.382;5.270;2023-08-08T12:23:59;101307.34;;;19.23;100.00
47054;BME280;32811;52.382;5.270;2023-08-08T12:26:26;101311.63;;;19.27;100.00
47054;BME280;32811;52.382;5.270;2023-08-08T12:28:53;101330.78;;;19.27;100.00
47054;BME280;32811;52.382;5.270;2023-08-08T12:31:21;101322.72;;;18.99;100.00
47054;BME280;32811;52.382;5.270;2023-08-08T12:33:47;101320.00;;;18.62;100.00
47054;BME280;32811;52.382;5.270;2023-08-08T12:36:15;101329.03;;;18.49;100.00
47054;BME280;32811;52.382;5.270;2023-08-08T12:38:42;101325.50;;;18.50;100.00
47054;BME280;32811;52.382;5.270;2023-08-08T12:41:08;101320.09;;;18.59;100.00
47054;BME280;32811;52.382;5.270;2023-08-08T12:43:37;101313.97;;;18.60;100.00
47054;BME280;32811;52.382;5.270;2023-08-08T12:46:04;101317.09;;;18.77;100.00
47054;BME280;32811;52.382;5.270;2023-08-08T12:48:30;101324.06;;;18.78;100.00
47054;BME280;32811;52.382;5.270;2023-08-08T12:50:57;101327.69;;;18.71;100.00
47054;BME280;32811;52.382;5.270;2023-08-08T12:53:24;101326.84;;;18.69;100.00
47054;BME280;32811;52.382;5.270;2023-08-08T12:55:50;101316.75;;;18.93;100.00